Time;durP1;ratioP1;P1;durP2;ratioP2;P2;SDS_P1;SDS_P2;PMS_P1;PMS_P2;Temp;Humidity;BMP_temperature;BMP_pressure;BME280_temperature;BME280_humidity;BME280_pressure;Samples;Min_cycle;Max_cycle;Signal;HPM_P1;HPM_P2
2021/04/16 00:00:31;;;;;;;6.93;5.97;;;0.60;99.90;;;;;;5012269;28;20445;-66
2021/04/16 00:02:58;;;;;;;7.50;5.70;;;0.60;99.90;;;;;;5011611;28;20446;-67
2021/04/16 00:05:25;;;;;;;7.17;5.43;;;0.40;99.90;;;;;;5011810;28;20533;-68
2021/04/16 00:07:52;;;;;;;6.43;4.90;;;0.40;99.90;;;;;;5012533;28;20519;-67
2021/04/16 00:10:23;;;;;;;9.10;6.20;;;0.40;99.90;;;;;;5011745;28;20879;-68
2021/04/16 00:12:49;;;;;;;6.43;5.73;;;0.30;99.90;;;;;;5011673;28;20485;-68
2021/04/16 00:15:18;;;;;;;10.57;6.70;;;0.40;99.90;;;;;;5011792;28;20982;-66
2021/04/16 00:17:46;;;;;;;10.43;6.47;;;0.30;99.90;;;;;;5011994;28;20446;-67
2021/04/16 00:20:16;;;;;;;10.57;7.40;;;0.30;99.90;;;;;;5011314;28;20446;-65
2021/04/16 00:22:42;;;;;;;9.53;7.30;;;0.40;99.90;;;;;;5012004;28;20453;-67
2021/04/16 00:25:11;;;;;;;12.67;7.80;;;0.40;99.90;;;;;;5011385;28;20536;-66
2021/04/16 00:27:38;;;;;;;8.87;6.87;;;0.30;99.90;;;;;;5011260;28;20929;-67
2021/04/16 00:30:06;;;;;;;12.00;7.60;;;0.30;99.90;;;;;;5011003;28;20488;-66
2021/04/16 00:32:34;;;;;;;8.23;6.73;;;0.20;99.90;;;;;;5010802;28;20486;-68
2021/04/16 00:35:01;;;;;;;9.30;6.40;;;0.10;99.90;;;;;;5011176;28;20445;-66
2021/04/16 00:37:28;;;;;;;8.00;6.40;;;0.10;99.90;;;;;;5010964;28;20536;-65
2021/04/16 00:39:54;;;;;;;12.20;6.83;;;0.00;99.90;;;;;;5010616;28;20456;-66
2021/04/16 00:42:21;;;;;;;9.23;7.13;;;0.00;99.90;;;;;;5010660;28;20570;-68
2021/04/16 00:44:47;;;;;;;7.50;6.40;;;0.00;99.90;;;;;;5010531;28;20442;-65
2021/04/16 00:47:17;;;;;;;7.43;6.00;;;-0.10;99.90;;;;;;5010809;28;20537;-67
2021/04/16 00:49:46;;;;;;;6.90;5.97;;;0.00;99.90;;;;;;5010763;28;20948;-65
2021/04/16 00:52:18;;;;;;;8.27;6.50;;;0.00;99.90;;;;;;5010471;28;20469;-66
2021/04/16 00:54:45;;;;;;;9.77;6.20;;;0.00;99.90;;;;;;5010770;28;20448;-66
2021/04/16 00:57:14;;;;;;;7.00;5.80;;;0.00;99.90;;;;;;5010665;28;20544;-66
2021/04/16 00:59:43;;;;;;;7.50;5.97;;;-0.10;99.90;;;;;;5010633;28;20549;-66
2021/04/16 01:02:10;;;;;;;8.47;6.27;;;-0.10;99.90;;;;;;5010574;28;20469;-66
2021/04/16 01:04:36;;;;;;;9.43;6.80;;;-0.10;99.90;;;;;;5010351;28;20454;-67
2021/04/16 01:07:04;;;;;;;8.97;6.57;;;-0.10;99.90;;;;;;5010331;28;20496;-67
2021/04/16 01:09:32;;;;;;;7.40;5.50;;;-0.10;99.90;;;;;;5010506;28;20449;-66
2021/04/16 01:12:01;;;;;;;7.80;5.70;;;-0.10;99.90;;;;;;5010453;28;20556;-67
2021/04/16 01:14:28;;;;;;;9.30;5.53;;;-0.10;99.90;;;;;;5010265;28;20477;-66
2021/04/16 01:16:55;;;;;;;8.20;6.20;;;-0.20;99.90;;;;;;5010511;28;20446;-66
2021/04/16 01:19:30;;;;;;;10.33;5.83;;;-0.20;99.90;;;;;;5010186;28;20473;-67
2021/04/16 01:22:02;;;;;;;7.57;5.80;;;-0.20;99.90;;;;;;5010612;28;20922;-66
2021/04/16 01:24:31;;;;;;;8.90;6.50;;;-0.20;99.90;;;;;;5010398;28;20529;-66
2021/04/16 01:26:58;;;;;;;6.50;5.37;;;-0.20;99.90;;;;;;5010743;28;20536;-66
2021/04/16 01:29:25;;;;;;;9.00;6.00;;;-0.10;99.90;;;;;;5010424;28;20460;-67
2021/04/16 01:31:52;;;;;;;8.23;6.53;;;-0.10;99.90;;;;;;5011362;28;20887;-66
2021/04/16 01:34:21;;;;;;;8.43;5.73;;;-0.30;99.90;;;;;;5014351;28;20488;-66
2021/04/16 01:36:50;;;;;;;7.00;5.93;;;-0.30;99.90;;;;;;5014297;28;20540;-67
2021/04/16 01:39:16;;;;;;;7.40;5.90;;;-0.20;99.90;;;;;;5014362;28;20442;-66
2021/04/16 01:41:43;;;;;;;7.00;5.30;;;-0.20;99.90;;;;;;5014120;28;20957;-67
2021/04/16 01:44:12;;;;;;;7.63;5.83;;;-0.20;99.90;;;;;;5013642;28;20492;-66
2021/04/16 01:46:50;;;;;;;8.03;6.37;;;-0.20;99.90;;;;;;5013921;28;20533;-66
2021/04/16 01:49:17;;;;;;;10.47;6.20;;;-0.20;99.90;;;;;;5014191;28;20481;-66
2021/04/16 01:51:44;;;;;;;9.10;5.70;;;-0.20;99.90;;;;;;5014202;28;20991;-67
2021/04/16 01:54:14;;;;;;;8.87;6.07;;;-0.30;99.90;;;;;;5013522;28;20481;-66
2021/04/16 01:56:44;;;;;;;6.80;5.60;;;-0.30;99.90;;;;;;5014082;28;20478;-66
2021/04/16 01:59:13;;;;;;;7.80;5.50;;;-0.40;99.90;;;;;;5014020;28;21079;-68
2021/04/16 02:01:39;;;;;;;7.50;5.60;;;-0.40;99.90;;;;;;5016283;28;20625;-66
2021/04/16 02:04:05;;;;;;;7.57;5.60;;;-0.50;99.90;;;;;;5014947;28;20796;-66
2021/04/16 02:06:33;;;;;;;8.33;6.30;;;-0.50;99.90;;;;;;5013532;28;21024;-66
2021/04/16 02:09:00;;;;;;;6.77;5.60;;;-0.50;99.90;;;;;;5013495;28;20454;-67
2021/04/16 02:11:26;;;;;;;6.80;5.80;;;-0.50;99.90;;;;;;5013514;28;20515;-67
2021/04/16 02:13:53;;;;;;;10.57;6.67;;;-0.60;99.90;;;;;;5013444;28;20486;-66
2021/04/16 02:16:19;;;;;;;10.10;6.20;;;-0.60;99.90;;;;;;5013326;28;20532;-67
2021/04/16 02:18:46;;;;;;;9.20;8.30;;;-0.50;99.90;;;;;;5013338;28;20442;-67
2021/04/16 02:21:12;;;;;;;7.07;5.60;;;-0.50;99.90;;;;;;5013541;28;20470;-68
2021/04/16 02:23:39;;;;;;;6.10;5.33;;;-0.50;99.90;;;;;;5012914;28;20548;-67
2021/04/16 02:26:05;;;;;;;8.00;6.07;;;-0.40;99.90;;;;;;5013028;28;20871;-67
2021/04/16 02:28:32;;;;;;;7.70;5.60;;;-0.40;99.90;;;;;;5013228;28;20528;-67
2021/04/16 02:30:59;;;;;;;7.27;5.77;;;-0.50;99.90;;;;;;5012986;28;20466;-68
2021/04/16 02:33:25;;;;;;;6.77;5.47;;;-0.40;99.90;;;;;;5012923;28;21010;-67
2021/04/16 02:35:51;;;;;;;7.93;5.80;;;-0.50;99.90;;;;;;5013335;28;20452;-68
2021/04/16 02:38:18;;;;;;;7.00;5.50;;;-0.40;99.90;;;;;;5013170;28;20528;-67
2021/04/16 02:40:44;;;;;;;7.23;6.00;;;-0.50;99.90;;;;;;5012711;28;20469;-67
2021/04/16 02:43:11;;;;;;;9.67;6.57;;;-0.60;99.90;;;;;;5012333;28;20473;-66
2021/04/16 02:45:37;;;;;;;11.47;6.70;;;-0.60;99.90;;;;;;5013374;28;20541;-66
2021/04/16 02:48:06;;;;;;;7.93;5.73;;;-0.60;99.90;;;;;;5012825;28;20533;-67
2021/04/16 02:50:33;;;;;;;7.63;6.70;;;-0.60;99.90;;;;;;5013106;28;20909;-66
2021/04/16 02:53:00;;;;;;;8.77;6.60;;;-0.70;99.90;;;;;;5012788;28;20569;-66
2021/04/16 02:55:26;;;;;;;10.80;7.37;;;-0.70;99.90;;;;;;5012850;28;20503;-67
2021/04/16 02:57:52;;;;;;;8.73;6.77;;;-0.60;99.90;;;;;;5012960;28;20537;-67
2021/04/16 03:00:22;;;;;;;7.23;5.70;;;-0.70;99.90;;;;;;5012855;28;20438;-67
2021/04/16 03:02:49;;;;;;;9.30;5.80;;;-0.60;99.90;;;;;;5012388;28;20474;-65
2021/04/16 03:05:17;;;;;;;10.87;5.73;;;-0.70;99.90;;;;;;5012862;28;20537;-67
2021/04/16 03:07:44;;;;;;;7.60;6.60;;;-0.70;99.90;;;;;;5012576;28;20468;-68
2021/04/16 03:10:13;;;;;;;6.90;5.10;;;-0.70;99.90;;;;;;5012723;28;20449;-67
2021/04/16 03:12:39;;;;;;;7.77;6.03;;;-0.80;99.90;;;;;;5012771;28;20488;-67
2021/04/16 03:15:07;;;;;;;8.27;5.37;;;-0.80;99.90;;;;;;5012690;28;20471;-66
2021/04/16 03:17:34;;;;;;;7.27;6.37;;;-0.90;99.90;;;;;;5012336;28;20938;-67
2021/04/16 03:20:01;;;;;;;8.17;6.07;;;-0.80;99.90;;;;;;5012231;28;20465;-68
2021/04/16 03:22:28;;;;;;;9.47;6.57;;;-0.90;99.90;;;;;;5012007;28;21003;-67
2021/04/16 03:24:54;;;;;;;10.50;7.23;;;-0.90;99.90;;;;;;5012504;28;20536;-68
2021/04/16 03:27:21;;;;;;;10.23;6.63;;;-0.90;99.90;;;;;;5012085;28;20456;-66
2021/04/16 03:29:47;;;;;;;7.57;5.57;;;-0.90;99.90;;;;;;5012049;28;20495;-67
2021/04/16 03:32:13;;;;;;;8.80;6.43;;;-1.00;99.90;;;;;;5011856;28;20557;-68
2021/04/16 03:34:40;;;;;;;9.10;7.20;;;-1.00;99.90;;;;;;5011462;28;21064;-67
2021/04/16 03:37:06;;;;;;;8.70;7.13;;;-1.00;99.90;;;;;;5011748;28;20540;-67
2021/04/16 03:39:33;;;;;;;7.83;6.63;;;-1.00;99.90;;;;;;5011579;28;20945;-67
2021/04/16 03:41:59;;;;;;;8.97;7.50;;;-0.90;99.90;;;;;;5011740;28;20497;-67
2021/04/16 03:44:26;;;;;;;8.07;6.67;;;-1.00;99.90;;;;;;5011671;28;20452;-67
2021/04/16 03:46:52;;;;;;;9.33;7.30;;;-1.00;99.90;;;;;;5011908;28;20501;-65
2021/04/16 03:49:18;;;;;;;7.77;6.07;;;-1.00;99.90;;;;;;5011740;28;20446;-67
2021/04/16 03:51:53;;;;;;;7.37;6.30;;;-1.10;99.90;;;;;;5011863;28;20538;-67
2021/04/16 03:54:21;;;;;;;9.03;6.23;;;-1.10;99.90;;;;;;5010521;28;20480;-67
2021/04/16 03:56:48;;;;;;;8.57;6.57;;;-1.10;99.90;;;;;;5011678;28;20456;-67
2021/04/16 03:59:15;;;;;;;8.13;6.40;;;-1.10;99.90;;;;;;5011611;28;20456;-67
2021/04/16 04:01:41;;;;;;;9.00;7.03;;;-1.20;99.90;;;;;;5011117;28;21060;-67
2021/04/16 04:04:08;;;;;;;10.50;7.17;;;-1.20;99.90;;;;;;5011044;28;20435;-67
2021/04/16 04:06:34;;;;;;;9.83;6.97;;;-1.30;99.90;;;;;;5011496;28;20478;-67
2021/04/16 04:09:01;;;;;;;8.63;6.53;;;-1.30;99.90;;;;;;5011315;28;20465;-67
2021/04/16 04:11:27;;;;;;;8.57;6.70;;;-1.30;99.90;;;;;;5011178;28;20556;-67
2021/04/16 04:13:55;;;;;;;8.87;6.00;;;-1.20;99.90;;;;;;5011277;28;20496;-67
2021/04/16 04:16:21;;;;;;;9.20;6.23;;;-1.30;99.90;;;;;;5011066;28;20450;-67
2021/04/16 04:18:48;;;;;;;12.27;7.30;;;-1.30;99.90;;;;;;5011248;28;20852;-67
2021/04/16 04:21:14;;;;;;;8.57;6.70;;;-1.30;99.90;;;;;;5011361;28;20734;-68
2021/04/16 04:23:40;;;;;;;8.50;6.93;;;-1.30;99.90;;;;;;5010911;28;20453;-67
2021/04/16 04:26:07;;;;;;;10.33;7.07;;;-1.20;99.90;;;;;;5011181;28;20866;-67
2021/04/16 04:28:33;;;;;;;9.83;7.37;;;-1.20;99.90;;;;;;5011101;28;20640;-67
2021/04/16 04:31:00;;;;;;;10.23;7.73;;;-1.20;99.90;;;;;;5010849;28;20461;-67
2021/04/16 04:33:26;;;;;;;11.10;6.60;;;-1.20;99.90;;;;;;5010692;28;20937;-66
2021/04/16 04:35:53;;;;;;;9.70;7.17;;;-1.20;99.90;;;;;;5010921;28;20945;-66
2021/04/16 04:38:19;;;;;;;9.00;5.77;;;-1.10;99.90;;;;;;5010865;28;20552;-67
2021/04/16 04:40:46;;;;;;;12.10;8.20;;;-1.20;99.90;;;;;;5010776;28;20481;-66
2021/04/16 04:43:13;;;;;;;8.63;7.73;;;-1.20;99.90;;;;;;5010408;28;20552;-68
2021/04/16 04:45:39;;;;;;;10.10;7.47;;;-1.20;99.90;;;;;;5010767;28;20531;-67
2021/04/16 04:48:08;;;;;;;9.57;7.50;;;-1.20;99.90;;;;;;5010629;28;20461;-68
2021/04/16 04:50:34;;;;;;;11.80;8.60;;;-1.20;99.90;;;;;;5010932;28;20472;-67
2021/04/16 04:53:00;;;;;;;9.80;7.90;;;-1.20;99.90;;;;;;5010370;28;20565;-67
2021/04/16 04:55:30;;;;;;;11.67;7.57;;;-1.10;99.90;;;;;;5010530;28;20473;-68
2021/04/16 04:57:58;;;;;;;9.20;7.50;;;-1.10;99.90;;;;;;5010612;28;20449;-68
2021/04/16 05:00:25;;;;;;;10.97;7.37;;;-1.00;99.90;;;;;;5009954;28;21069;-67
2021/04/16 05:02:52;;;;;;;9.90;8.50;;;-0.90;99.90;;;;;;5009795;28;20438;-67
2021/04/16 05:05:21;;;;;;;12.23;8.87;;;-0.80;99.90;;;;;;5009669;28;20450;-67
2021/04/16 05:07:47;;;;;;;10.27;8.23;;;-0.80;99.90;;;;;;5010023;28;20450;-67
2021/04/16 05:10:15;;;;;;;16.30;9.10;;;-0.80;99.90;;;;;;5009661;28;20533;-66
2021/04/16 05:12:42;;;;;;;11.20;7.43;;;-0.70;99.90;;;;;;5009333;28;20454;-67
2021/04/16 05:15:10;;;;;;;9.23;6.50;;;-0.60;99.90;;;;;;5010492;28;20839;-66
2021/04/16 05:17:36;;;;;;;12.97;8.30;;;-0.60;99.90;;;;;;5000438;28;21183;-67
2021/04/16 05:20:04;;;;;;;10.50;8.17;;;-0.50;99.90;;;;;;5002317;28;20528;-65
2021/04/16 05:22:31;;;;;;;10.33;8.10;;;-0.50;99.90;;;;;;5007918;28;20509;-68
2021/04/16 05:24:58;;;;;;;10.07;8.17;;;-0.40;99.90;;;;;;5008099;28;20442;-67
2021/04/16 05:27:25;;;;;;;11.27;9.27;;;-0.30;99.90;;;;;;5007778;28;20513;-66
2021/04/16 05:29:53;;;;;;;10.80;8.03;;;-0.20;99.90;;;;;;5008343;28;20456;-65
2021/04/16 05:32:20;;;;;;;9.63;8.67;;;-0.10;99.90;;;;;;5007199;28;20969;-64
2021/04/16 05:34:47;;;;;;;10.97;7.97;;;0.00;99.90;;;;;;5008238;28;20576;-65
2021/04/16 05:37:14;;;;;;;10.43;8.23;;;0.10;99.90;;;;;;5007392;28;20441;-67
2021/04/16 05:39:42;;;;;;;9.60;8.20;;;0.30;99.90;;;;;;5007420;28;20458;-68
2021/04/16 05:42:10;;;;;;;9.57;7.90;;;0.30;99.90;;;;;;5008881;28;20492;-70
2021/04/16 05:44:36;;;;;;;14.00;7.97;;;0.50;99.90;;;;;;5008561;28;20446;-67
2021/04/16 05:47:03;;;;;;;9.60;7.97;;;0.60;99.90;;;;;;5009507;28;20549;-67
2021/04/16 05:49:30;;;;;;;9.30;8.37;;;0.80;99.90;;;;;;5006600;28;20504;-67
2021/04/16 05:51:56;;;;;;;9.30;7.70;;;1.00;99.90;;;;;;5007633;28;20556;-67
2021/04/16 05:54:23;;;;;;;12.13;8.20;;;1.00;99.90;;;;;;5006446;28;20470;-66
2021/04/16 05:56:50;;;;;;;10.60;8.23;;;1.00;99.90;;;;;;5008762;28;20450;-66
2021/04/16 05:59:16;;;;;;;10.97;8.93;;;1.10;99.90;;;;;;5009110;28;20493;-65
2021/04/16 06:01:43;;;;;;;10.17;8.87;;;1.20;99.90;;;;;;5008431;28;20509;-65
2021/04/16 06:04:16;;;;;;;12.27;8.53;;;1.40;99.90;;;;;;5008604;28;20505;-65
2021/04/16 06:06:43;;;;;;;12.57;9.17;;;1.60;99.90;;;;;;5008491;28;20445;-67
2021/04/16 06:09:09;;;;;;;10.03;7.60;;;1.80;99.90;;;;;;5008566;28;20949;-67
2021/04/16 06:11:36;;;;;;;14.87;7.73;;;2.00;99.90;;;;;;5008065;28;20528;-66
2021/04/16 06:14:04;;;;;;;9.73;7.70;;;2.20;99.90;;;;;;5007491;28;20572;-66
2021/04/16 06:16:30;;;;;;;9.30;7.23;;;2.40;99.90;;;;;;5007924;28;20524;-66
2021/04/16 06:18:57;;;;;;;9.57;7.47;;;2.50;99.90;;;;;;5007247;28;20449;-66
2021/04/16 06:21:23;;;;;;;9.37;7.63;;;2.50;99.90;;;;;;5009929;28;20623;-66
2021/04/16 06:23:50;;;;;;;8.97;8.07;;;2.80;99.90;;;;;;5010228;28;20945;-65
2021/04/16 06:26:16;;;;;;;13.23;7.50;;;3.10;99.90;;;;;;5011420;28;20445;-66
2021/04/16 06:28:44;;;;;;;11.73;7.87;;;3.50;99.90;;;;;;5010466;28;20438;-66
2021/04/16 06:31:12;;;;;;;9.50;7.53;;;3.90;99.90;;;;;;5009751;28;20478;-67
2021/04/16 06:33:39;;;;;;;7.33;6.57;;;4.00;99.90;;;;;;5009981;28;20492;-67
2021/04/16 06:36:07;;;;;;;12.47;8.20;;;4.20;99.90;;;;;;5009492;28;20473;-66
2021/04/16 06:38:35;;;;;;;8.00;6.63;;;4.30;99.90;;;;;;5002295;28;20483;-65
2021/04/16 06:41:03;;;;;;;7.30;6.60;;;4.30;99.90;;;;;;5009700;28;20473;-66
2021/04/16 06:43:37;;;;;;;7.70;5.77;;;4.40;99.90;;;;;;5009626;28;20438;-65
2021/04/16 06:46:06;;;;;;;7.73;6.47;;;4.70;99.90;;;;;;5009790;28;20446;-65
2021/04/16 06:48:33;;;;;;;8.83;6.20;;;4.70;99.90;;;;;;5009740;28;20458;-65
2021/04/16 06:51:00;;;;;;;6.40;5.77;;;4.60;99.90;;;;;;5009553;28;21033;-66
2021/04/16 06:53:36;;;;;;;7.10;5.73;;;4.70;99.90;;;;;;5008901;28;20533;-66
2021/04/16 06:56:05;;;;;;;10.47;5.87;;;4.90;99.90;;;;;;5009671;28;20584;-65
2021/04/16 06:58:36;;;;;;;6.13;5.53;;;5.00;99.90;;;;;;5010010;28;21004;-66
2021/04/16 07:01:09;;;;;;;8.47;6.13;;;5.00;99.90;;;;;;5008301;28;20473;-66
2021/04/16 07:03:43;;;;;;;6.77;5.63;;;5.30;99.90;;;;;;5009340;28;20797;-67
2021/04/16 07:06:20;;;;;;;7.93;6.10;;;5.60;99.90;;;;;;5009603;28;20473;-66
2021/04/16 07:08:55;;;;;;;5.90;5.30;;;5.80;99.90;;;;;;5009664;28;20969;-65
2021/04/16 07:11:24;;;;;;;6.93;6.23;;;5.80;99.90;;;;;;5008988;28;20584;-67
2021/04/16 07:13:51;;;;;;;7.43;6.80;;;6.00;99.90;;;;;;5009073;28;20487;-66
2021/04/16 07:16:20;;;;;;;7.30;6.60;;;6.30;99.90;;;;;;5009473;28;20541;-66
2021/04/16 07:18:51;;;;;;;6.03;5.30;;;6.60;99.90;;;;;;5009521;28;21086;-67
2021/04/16 07:21:21;;;;;;;8.03;5.80;;;6.40;99.90;;;;;;5009260;28;21035;-66
2021/04/16 07:23:51;;;;;;;7.27;5.90;;;5.90;99.90;;;;;;5008809;28;20576;-65
2021/04/16 07:26:32;;;;;;;8.43;5.13;;;5.70;99.90;;;;;;5009700;28;20449;-66
2021/04/16 07:28:59;;;;;;;5.97;5.37;;;5.60;99.90;;;;;;5009616;28;20444;-69
2021/04/16 07:31:42;;;;;;;6.17;5.57;;;5.50;99.90;;;;;;5009248;28;20519;-67
2021/04/16 07:34:17;;;;;;;6.67;5.47;;;5.10;99.90;;;;;;5008862;28;20752;-66
2021/04/16 07:36:44;;;;;;;6.33;5.23;;;5.20;99.90;;;;;;5008914;28;20532;-66
2021/04/16 07:39:28;;;;;;;5.77;5.23;;;5.30;99.90;;;;;;5008942;28;21031;-67
2021/04/16 07:41:56;;;;;;;6.10;5.60;;;5.30;99.90;;;;;;5008823;28;21044;-65
2021/04/16 07:44:25;;;;;;;5.27;4.73;;;5.30;99.90;;;;;;5008080;28;20515;-65
2021/04/16 07:46:54;;;;;;;5.70;4.87;;;5.60;99.90;;;;;;5008749;28;20541;-65
2021/04/16 07:49:28;;;;;;;5.83;5.30;;;5.70;99.90;;;;;;5008289;28;20489;-66
2021/04/16 07:51:57;;;;;;;6.23;5.63;;;5.80;99.90;;;;;;5008419;28;20469;-66
2021/04/16 07:54:26;;;;;;;6.23;5.60;;;6.10;99.90;;;;;;5008148;28;20505;-69
2021/04/16 07:57:11;;;;;;;6.23;5.73;;;6.20;99.90;;;;;;5008331;28;20889;-66
2021/04/16 07:59:54;;;;;;;5.40;4.90;;;6.00;99.90;;;;;;5008435;28;20450;-68
2021/04/16 08:02:28;;;;;;;8.47;6.77;;;6.10;99.90;;;;;;5012205;28;20553;-69
2021/04/16 08:04:56;;;;;;;8.47;7.67;;;6.30;99.90;;;;;;5009668;28;20542;-65
2021/04/16 08:07:28;;;;;;;6.00;5.50;;;6.50;99.90;;;;;;5008934;28;20606;-66
2021/04/16 08:09:56;;;;;;;6.57;5.97;;;6.80;99.90;;;;;;5009387;28;20452;-67
2021/04/16 08:12:26;;;;;;;7.17;6.50;;;7.00;99.90;;;;;;5008651;28;20474;-65
2021/04/16 08:15:16;;;;;;;7.20;6.50;;;7.20;99.90;;;;;;5008473;28;20999;-65
2021/04/16 08:17:43;;;;;;;5.80;5.30;;;7.50;99.90;;;;;;5007942;28;20450;-65
2021/04/16 08:20:29;;;;;;;8.07;5.50;;;7.80;99.90;;;;;;5008363;28;20533;-65
2021/04/16 08:22:57;;;;;;;5.83;5.23;;;8.20;99.90;;;;;;5007526;28;20528;-65
2021/04/16 08:25:35;;;;;;;6.27;5.67;;;8.30;99.90;;;;;;5008026;28;20465;-66
2021/04/16 08:28:05;;;;;;;6.30;5.13;;;8.30;99.90;;;;;;5008387;28;20885;-66
2021/04/16 08:30:44;;;;;;;7.18;6.45;;;8.30;99.90;;;;;;5007919;28;20538;-66
2021/04/16 08:33:19;;;;;;;6.47;5.87;;;8.50;99.90;;;;;;5007687;28;20214;-68
2021/04/16 08:35:55;;;;;;;6.53;5.50;;;8.60;99.90;;;;;;5008662;28;20537;-65
2021/04/16 08:38:26;;;;;;;7.00;4.93;;;8.60;99.90;;;;;;5008531;28;20436;-66
2021/04/16 08:40:55;;;;;;;6.20;5.60;;;8.60;99.90;;;;;;5007258;28;20462;-67
2021/04/16 08:43:30;;;;;;;6.00;5.40;;;8.70;99.90;;;;;;5007639;28;20532;-67
2021/04/16 08:46:00;;;;;;;5.70;5.20;;;8.60;99.90;;;;;;5006774;28;20565;-64
2021/04/16 08:48:30;;;;;;;6.60;6.00;;;8.90;99.90;;;;;;5007090;28;20529;-66
2021/04/16 08:51:03;;;;;;;5.50;5.00;;;9.00;99.90;;;;;;5007399;28;20567;-67
2021/04/16 08:53:29;;;;;;;5.37;4.87;;;9.20;99.90;;;;;;5006265;28;20880;-65
2021/04/16 08:55:56;;;;;;;6.73;6.03;;;9.50;99.90;;;;;;5007827;28;20800;-66
2021/04/16 08:58:29;;;;;;;8.17;6.40;;;9.90;99.90;;;;;;5007402;28;20529;-66
2021/04/16 09:00:58;;;;;;;5.47;4.97;;;10.20;99.90;;;;;;5007426;28;20484;-64
2021/04/16 09:03:27;;;;;;;5.70;5.20;;;10.60;99.90;;;;;;5007046;28;20477;-67
2021/04/16 09:06:00;;;;;;;6.30;5.23;;;10.90;99.70;;;;;;5007626;28;21224;-66
2021/04/16 09:08:35;;;;;;;5.50;5.00;;;10.90;97.50;;;;;;5007969;28;20865;-67
2021/04/16 09:11:03;;;;;;;5.80;5.27;;;10.50;97.70;;;;;;5007531;28;20549;-64
2021/04/16 09:13:57;;;;;;;5.73;5.23;;;10.50;97.70;;;;;;5007032;28;20480;-67
2021/04/16 09:16:54;;;;;;;6.30;5.70;;;10.40;97.60;;;;;;5007813;28;20438;-68
2021/04/16 09:20:09;;;;;;;5.83;5.33;;;10.40;96.70;;;;;;5007169;28;20450;-66
2021/04/16 09:22:45;;;;;;;5.40;4.90;;;9.90;97.90;;;;;;5007202;28;20487;-66
2021/04/16 09:25:39;;;;;;;6.27;5.77;;;9.60;98.50;;;;;;5007589;28;20536;-66
2021/04/16 09:28:32;;;;;;;6.70;6.10;;;9.50;99.10;;;;;;5007830;28;20949;-66
2021/04/16 09:31:00;;;;;;;6.13;5.53;;;9.60;99.90;;;;;;5007121;28;20458;-67
2021/04/16 09:33:28;;;;;;;6.07;5.47;;;10.00;99.20;;;;;;5006730;28;20577;-67
2021/04/16 09:36:01;;;;;;;5.80;5.30;;;10.60;97.90;;;;;;5007713;28;20500;-66
2021/04/16 09:38:39;;;;;;;5.87;5.13;;;10.80;96.50;;;;;;5007342;28;20508;-67
2021/04/16 09:41:17;;;;;;;6.00;5.40;;;10.60;96.90;;;;;;5007415;28;20901;-66
2021/04/16 09:43:45;;;;;;;5.90;5.30;;;10.70;97.50;;;;;;5006955;28;20572;-65
2021/04/16 09:46:48;;;;;;;5.47;4.97;;;11.00;96.00;;;;;;5007506;28;20832;-67
2021/04/16 09:49:33;;;;;;;6.30;5.27;;;11.10;95.80;;;;;;5007337;28;20454;-66
2021/04/16 09:52:20;;;;;;;6.43;5.67;;;11.10;95.60;;;;;;5007254;28;20548;-64
2021/04/16 09:54:47;;;;;;;6.50;5.90;;;11.10;94.80;;;;;;5010885;28;20516;-66
2021/04/16 09:57:43;;;;;;;7.63;6.00;;;10.80;95.10;;;;;;5011060;28;20525;-67
2021/04/16 10:00:39;;;;;;;7.30;6.60;;;9.60;95.90;;;;;;5010686;28;20536;-66
2021/04/16 10:03:24;;;;;;;6.07;5.57;;;8.40;98.50;;;;;;5010951;28;20449;-66
2021/04/16 10:05:52;;;;;;;8.97;6.50;;;7.80;99.90;;;;;;5010843;28;20528;-66
2021/04/16 10:08:25;;;;;;;8.33;6.90;;;7.40;99.90;;;;;;5010684;28;20539;-67
2021/04/16 10:10:53;;;;;;;7.83;6.77;;;7.40;99.90;;;;;;5010730;28;20469;-65
2021/04/16 10:13:25;;;;;;;7.60;6.80;;;7.50;99.90;;;;;;5010367;28;20485;-67
2021/04/16 10:15:54;;;;;;;6.20;5.60;;;7.70;99.90;;;;;;5011474;28;20546;-67
2021/04/16 10:18:32;;;;;;;8.73;6.70;;;7.80;99.90;;;;;;5006981;28;20482;-67
2021/04/16 10:21:07;;;;;;;6.00;5.50;;;8.00;99.90;;;;;;4998843;28;20493;-66
2021/04/16 10:23:37;;;;;;;5.83;5.33;;;8.10;99.90;;;;;;5017973;28;20464;-66
2021/04/16 12:39:30;;;;;;;4.40;4.00;;;10.20;94.70;;;;;;5003715;28;20454;-66
2021/04/16 12:41:58;;;;;;;4.10;3.70;;;10.30;94.70;;;;;;5010527;28;20569;-67
2021/04/16 12:44:29;;;;;;;4.93;4.50;;;10.20;92.90;;;;;;5010132;28;20434;-66
2021/04/16 12:47:01;;;;;;;4.07;3.43;;;10.50;94.00;;;;;;5010090;28;20449;-66
2021/04/16 12:49:30;;;;;;;4.40;4.00;;;11.00;93.90;;;;;;5010675;28;20438;-66
2021/04/16 12:51:56;;;;;;;5.20;3.40;;;11.20;92.80;;;;;;5010440;28;20465;-74
2021/04/16 12:54:22;;;;;;;3.90;3.60;;;11.30;92.30;;;;;;5010390;28;20485;-74
2021/04/16 12:56:49;;;;;;;4.10;3.70;;;11.30;92.60;;;;;;5010611;28;20532;-74
2021/04/16 12:59:18;;;;;;;4.17;3.77;;;11.20;92.50;;;;;;5010963;28;21014;-71
2021/04/16 13:01:46;;;;;;;4.90;4.40;;;11.30;92.40;;;;;;5010805;28;20470;-70
2021/04/16 13:04:14;;;;;;;3.77;3.33;;;10.50;90.40;;;;;;5010055;28;20874;-70
2021/04/16 13:06:44;;;;;;;6.40;3.80;;;9.90;92.70;;;;;;5010365;28;20603;-71
2021/04/16 13:09:12;;;;;;;6.60;3.43;;;9.80;93.80;;;;;;5010428;28;20480;-70
2021/04/16 13:11:39;;;;;;;4.30;3.10;;;9.80;93.70;;;;;;5009304;28;20473;-70
2021/04/16 13:14:06;;;;;;;5.53;3.73;;;10.00;93.40;;;;;;5004711;28;20481;-69
2021/04/16 13:16:33;;;;;;;4.47;4.07;;;9.70;93.40;;;;;;5003678;28;20599;-69
2021/04/16 13:19:03;;;;;;;4.50;4.10;;;9.20;94.30;;;;;;5009149;28;21020;-69
2021/04/16 13:21:32;;;;;;;4.67;3.97;;;9.30;95.90;;;;;;5008612;28;20468;-68
2021/04/16 13:23:59;;;;;;;5.20;4.60;;;9.80;95.60;;;;;;5008972;28;20533;-69
2021/04/16 13:26:26;;;;;;;5.13;3.30;;;10.40;94.80;;;;;;5004649;28;20557;-69
2021/04/16 13:28:53;;;;;;;4.47;3.10;;;10.90;93.50;;;;;;5011878;28;20480;-69
2021/04/16 13:31:19;;;;;;;3.60;3.30;;;11.30;92.40;;;;;;5014004;28;20489;-70
2021/04/16 13:33:48;;;;;;;4.00;3.13;;;11.60;91.50;;;;;;5012750;28;20551;-70
2021/04/16 13:36:17;;;;;;;4.57;3.93;;;11.90;91.10;;;;;;5014845;28;20518;-69
2021/04/16 13:38:46;;;;;;;4.80;3.57;;;12.30;89.30;;;;;;5015681;28;20522;-69
2021/04/16 13:41:13;;;;;;;2.90;2.60;;;12.20;90.30;;;;;;5035497;22;20572;-70
2021/04/16 13:43:40;;;;;;;3.40;2.80;;;12.10;88.60;;;;;;5018294;28;20468;-70
2021/04/16 13:46:08;;;;;;;3.50;2.70;;;12.20;87.90;;;;;;5012005;28;20479;-71
2021/04/16 13:48:35;;;;;;;3.87;2.70;;;12.20;88.50;;;;;;5013102;28;20449;-70
2021/04/16 13:51:01;;;;;;;3.53;2.63;;;11.90;85.90;;;;;;5014295;28;20855;-69
2021/04/16 13:53:27;;;;;;;3.93;3.53;;;11.00;86.90;;;;;;5013122;28;20524;-71
2021/04/16 13:55:55;;;;;;;3.07;2.77;;;10.80;89.10;;;;;;5014719;28;20537;-70
2021/04/16 13:58:21;;;;;;;3.93;2.57;;;10.30;87.70;;;;;;5014169;28;20485;-69
2021/04/16 14:00:47;;;;;;;3.53;2.50;;;10.20;89.70;;;;;;5014341;28;20450;-68
2021/04/16 14:03:20;;;;;;;2.67;2.43;;;10.60;91.10;;;;;;5006255;28;20466;-69
2021/04/16 14:05:49;;;;;;;3.93;3.17;;;11.00;89.00;;;;;;4992401;28;20840;-68
2021/04/16 14:08:24;;;;;;;4.27;3.00;;;11.10;89.90;;;;;;4994706;28;20776;-69
2021/04/16 14:10:51;;;;;;;6.13;3.10;;;11.40;88.80;;;;;;4999269;28;20576;-69
2021/04/16 14:13:18;;;;;;;6.30;2.90;;;11.30;88.40;;;;;;4992541;28;20470;-69
2021/04/16 14:15:45;;;;;;;2.83;2.20;;;11.00;88.70;;;;;;5001903;28;21159;-68
2021/04/16 14:18:25;;;;;;;3.30;2.70;;;10.80;87.70;;;;;;4994118;28;20466;-69
2021/04/16 14:20:52;;;;;;;3.67;2.70;;;10.30;88.30;;;;;;4984583;28;20553;-68
2021/04/16 14:23:20;;;;;;;3.33;3.03;;;9.70;90.60;;;;;;4974188;28;20475;-69
2021/04/16 14:25:47;;;;;;;3.93;2.80;;;9.30;91.60;;;;;;5001088;28;20629;-69
2021/04/16 14:28:16;;;;;;;3.33;2.97;;;9.20;92.10;;;;;;4996635;28;20538;-68
2021/04/16 14:30:45;;;;;;;4.60;3.30;;;8.80;91.50;;;;;;4993128;28;20446;-69
2021/04/16 14:33:15;;;;;;;3.30;2.57;;;8.60;92.10;;;;;;4993783;28;20477;-70
2021/04/16 14:35:42;;;;;;;3.60;2.83;;;8.60;92.70;;;;;;5002291;28;21110;-69
2021/04/16 14:38:08;;;;;;;4.70;2.90;;;8.60;93.70;;;;;;5010018;28;20529;-68
2021/04/16 14:40:36;;;;;;;3.40;2.73;;;8.70;93.20;;;;;;5009964;28;20511;-68
2021/04/16 14:43:04;;;;;;;3.37;2.70;;;8.90;92.70;;;;;;5005619;28;20856;-68
2021/04/16 14:45:37;;;;;;;5.07;2.90;;;8.60;92.60;;;;;;5000709;28;20592;-68
2021/04/16 14:48:05;;;;;;;3.20;2.80;;;8.60;92.40;;;;;;4987876;28;20483;-68
2021/04/16 14:50:32;;;;;;;3.87;2.70;;;8.50;93.00;;;;;;4990504;28;20531;-69
2021/04/16 14:53:02;;;;;;;3.20;2.67;;;8.50;93.20;;;;;;5014093;28;20505;-69
2021/04/16 14:55:32;;;;;;;4.10;2.70;;;8.30;92.90;;;;;;4990541;28;20537;-69
2021/04/16 14:58:00;;;;;;;3.80;2.90;;;8.10;93.10;;;;;;4998092;28;20512;-70
2021/04/16 15:00:29;;;;;;;3.80;3.13;;;7.90;93.60;;;;;;5003300;28;20473;-69
2021/04/16 15:02:56;;;;;;;3.50;3.20;;;7.90;94.30;;;;;;5001714;28;20478;-68
2021/04/16 15:05:24;;;;;;;3.97;3.03;;;8.00;94.40;;;;;;4997318;28;20441;-69
2021/04/16 15:07:53;;;;;;;2.80;2.53;;;7.90;94.70;;;;;;5002836;28;21083;-68
2021/04/16 15:10:25;;;;;;;3.07;2.77;;;7.80;94.50;;;;;;5007906;28;20434;-69
2021/04/16 15:12:52;;;;;;;3.80;3.20;;;7.80;94.90;;;;;;4996600;28;20558;-69
2021/04/16 15:15:29;;;;;;;5.80;2.87;;;7.80;95.30;;;;;;4997543;28;20845;-69